createdAt,value
2023-03-06T00:04:08.925Z,37.20
2023-03-06T00:09:11.834Z,37.60
2023-03-06T00:14:16.485Z,36.70
2023-03-06T00:19:19.375Z,36.72
2023-03-06T00:24:22.337Z,37.08
2023-03-06T00:29:26.511Z,37.30
2023-03-06T00:34:29.392Z,36.53
2023-03-06T00:39:32.261Z,36.35
2023-03-06T00:44:36.519Z,36.67
2023-03-06T00:49:39.526Z,36.40
2023-03-06T00:54:42.593Z,36.45
2023-03-06T00:59:47.056Z,37.92
2023-03-06T01:04:49.966Z,36.80
2023-03-06T01:09:52.868Z,37.25
2023-03-06T01:14:59.187Z,36.95
2023-03-06T01:20:02.113Z,37.15
2023-03-06T01:25:05.396Z,36.10
2023-03-06T01:30:11.360Z,37.08
2023-03-06T01:35:14.930Z,35.97
2023-03-06T01:40:17.941Z,36.28
2023-03-06T01:45:58.406Z,36.88
2023-03-06T01:51:02.656Z,36.85
2023-03-06T01:56:06.627Z,35.95
2023-03-06T02:01:09.712Z,36.45
2023-03-06T02:06:19.585Z,36.58
2023-03-06T02:11:24.154Z,36.60
2023-03-06T02:16:30.489Z,36.35
2023-03-06T02:21:38.092Z,36.78
2023-03-06T02:26:46.497Z,36.15
2023-03-06T02:31:50.228Z,36.38
2023-03-06T02:36:56.671Z,37.28
2023-03-06T02:42:00.940Z,40.57
2023-03-06T02:47:07.785Z,37.35
2023-03-06T02:52:11.069Z,37.72
2023-03-06T02:57:16.781Z,37.47
2023-03-06T03:02:19.766Z,37.42
2023-03-06T03:07:22.988Z,38.60
2023-03-06T03:12:28.697Z,37.85
2023-03-06T03:17:31.675Z,37.55
2023-03-06T03:22:34.595Z,38.58
2023-03-06T03:27:38.839Z,37.78
2023-03-06T03:32:42.925Z,37.90
2023-03-06T03:37:46.265Z,37.88
2023-03-06T03:42:51.470Z,38.10
2023-03-06T03:47:55.377Z,37.88
2023-03-06T03:52:58.400Z,38.20
2023-03-06T03:58:02.754Z,37.83
2023-03-06T04:03:09.455Z,37.50
2023-03-06T04:08:16.349Z,37.45
2023-03-06T04:13:23.800Z,37.47
2023-03-06T04:18:28.496Z,37.45
2023-03-06T04:23:35.484Z,37.10
2023-03-06T04:28:40.793Z,38.30
2023-03-06T04:33:44.578Z,38.78
2023-03-06T04:38:47.796Z,38.90
2023-03-06T04:43:52.581Z,39.33
2023-03-06T04:48:55.550Z,39.60
2023-03-06T04:53:58.473Z,41.33
2023-03-06T04:59:04.141Z,37.80
2023-03-06T05:04:07.174Z,40.10
2023-03-06T05:09:10.091Z,38.72
2023-03-06T05:14:14.309Z,39.50
2023-03-06T05:19:17.233Z,38.42
2023-03-06T05:24:20.109Z,38.17
2023-03-06T05:29:24.314Z,38.70
2023-03-06T05:34:27.295Z,38.08
2023-03-06T05:39:30.290Z,38.65
2023-03-06T05:44:46.185Z,39.00
2023-03-06T05:49:49.234Z,39.78
2023-03-06T05:54:53.757Z,38.28
2023-03-06T05:59:58.010Z,38.40
2023-03-06T06:05:02.509Z,39.08
2023-03-06T06:10:06.990Z,37.35
2023-03-06T06:15:11.760Z,36.63
2023-03-06T06:20:17.296Z,36.45
2023-03-06T06:25:20.368Z,37.28
2023-03-06T06:30:25.077Z,38.50
2023-03-06T06:35:28.355Z,37.35
2023-03-06T06:40:31.277Z,38.00
2023-03-06T06:45:35.533Z,38.10
2023-03-06T06:50:39.972Z,38.75
2023-03-06T06:55:43.059Z,37.83
2023-03-06T07:00:47.330Z,38.33
2023-03-06T07:05:55.606Z,37.80
2023-03-06T07:10:58.840Z,39.08
2023-03-06T07:16:03.188Z,37.97
2023-03-06T07:21:06.617Z,37.95
2023-03-06T07:26:09.754Z,38.05
2023-03-06T07:31:14.045Z,37.45
2023-03-06T07:36:17.085Z,37.65
2023-03-06T07:41:22.535Z,38.35
2023-03-06T07:46:27.200Z,38.40
2023-03-06T07:51:30.275Z,38.15
2023-03-06T07:56:35.015Z,39.90
2023-03-06T08:01:40.295Z,38.42
2023-03-06T08:06:44.431Z,38.45
2023-03-06T08:11:47.465Z,37.60
2023-03-06T08:16:51.862Z,37.25
2023-03-06T08:21:54.763Z,37.70
2023-03-06T08:26:57.635Z,37.25
2023-03-06T08:32:01.934Z,37.78
2023-03-06T08:37:04.920Z,37.10
2023-03-06T08:42:08.231Z,38.15
2023-03-06T08:47:12.486Z,38.40
2023-03-06T08:52:16.987Z,38.42
2023-03-06T08:57:19.874Z,38.35
2023-03-06T09:02:24.111Z,39.63
2023-03-06T09:07:27.018Z,38.75
2023-03-06T09:12:32.674Z,39.70
2023-03-06T09:17:42.185Z,40.13
2023-03-06T09:22:46.639Z,38.95
2023-03-06T09:27:58.446Z,40.13
2023-03-06T09:33:06.284Z,39.80
2023-03-06T09:38:09.154Z,39.33
2023-03-06T09:43:21.982Z,38.38
2023-03-06T09:48:38.133Z,39.60
2023-03-06T09:53:56.558Z,40.33
2023-03-06T09:59:08.298Z,39.83
2023-03-06T10:04:29.287Z,38.97
2023-03-06T10:09:41.222Z,38.47
2023-03-06T10:14:48.883Z,37.88
2023-03-06T10:19:53.847Z,37.70
2023-03-06T10:24:57.587Z,40.42
2023-03-06T10:30:10.759Z,39.17
2023-03-06T10:35:19.581Z,38.42
2023-03-06T10:40:25.681Z,38.90
2023-03-06T10:45:29.949Z,38.75
2023-03-06T10:50:39.831Z,37.13
2023-03-06T10:55:53.004Z,39.42
2023-03-06T11:01:04.942Z,38.53
2023-03-06T11:06:13.364Z,39.05
2023-03-06T11:11:36.920Z,37.80
2023-03-06T11:16:40.798Z,37.10
2023-03-06T11:21:59.335Z,37.92
2023-03-06T11:27:10.267Z,37.83
2023-03-06T11:32:17.384Z,37.55
2023-03-06T11:37:40.597Z,38.65
2023-03-06T11:42:50.709Z,39.10
2023-03-06T11:48:01.707Z,37.85
2023-03-06T11:53:08.070Z,37.80
2023-03-06T11:58:36.839Z,36.97
2023-03-06T12:04:10.073Z,37.72
2023-03-06T12:09:29.930Z,36.50
2023-03-06T12:14:41.520Z,37.78
2023-03-06T12:19:55.713Z,37.85
2023-03-06T12:25:22.621Z,37.30
2023-03-06T12:30:51.746Z,38.15
2023-03-06T12:36:18.028Z,38.70
2023-03-06T12:41:35.074Z,38.83
2023-03-06T12:46:42.563Z,37.78
2023-03-06T12:51:46.970Z,37.95
2023-03-06T12:56:52.733Z,37.85
2023-03-06T13:02:20.219Z,38.33
2023-03-06T13:07:34.806Z,37.72
2023-03-06T13:12:54.251Z,37.30
2023-03-06T13:17:57.878Z,37.58
2023-03-06T13:23:15.866Z,37.38
2023-03-06T13:28:39.117Z,37.00
2023-03-06T13:34:30.609Z,36.40
2023-03-06T13:40:14.998Z,37.03
2023-03-06T13:45:24.699Z,35.50
2023-03-06T13:50:37.230Z,35.35
2023-03-06T13:55:49.579Z,34.97
2023-03-06T14:01:21.005Z,35.53
2023-03-06T14:06:50.782Z,35.53
2023-03-06T14:11:58.030Z,36.58
2023-03-06T14:17:05.265Z,39.25
2023-03-06T14:22:17.255Z,35.42
2023-03-06T14:27:20.585Z,35.67
2023-03-06T14:32:24.923Z,38.55
2023-03-06T14:37:29.079Z,35.00
2023-03-06T14:42:32.021Z,35.35
2023-03-06T14:47:37.666Z,35.70
2023-03-06T14:52:40.747Z,37.10
2023-03-06T14:57:44.243Z,36.67
2023-03-06T15:02:50.554Z,35.70
2023-03-06T15:07:56.461Z,36.85
2023-03-06T15:13:09.886Z,37.60
2023-03-06T15:18:36.142Z,38.40
2023-03-06T15:23:40.988Z,37.63
2023-03-06T15:28:43.890Z,38.80
2023-03-06T15:34:01.816Z,39.45
2023-03-06T15:39:32.229Z,37.45
2023-03-06T15:44:41.194Z,37.28
2023-03-06T15:49:45.616Z,38.90
2023-03-06T15:54:49.515Z,37.58
2023-03-06T15:59:52.989Z,37.20
2023-03-06T16:04:57.187Z,38.13
2023-03-06T16:10:00.078Z,37.60
2023-03-06T16:15:04.194Z,37.67
2023-03-06T16:20:17.429Z,37.80
2023-03-06T16:25:21.248Z,37.42
2023-03-06T16:30:25.512Z,36.92
2023-03-06T16:35:29.932Z,37.92
2023-03-06T16:40:37.599Z,37.30
2023-03-06T16:45:42.264Z,37.78
2023-03-06T16:50:46.744Z,39.67
2023-03-06T16:55:49.710Z,38.70
2023-03-06T17:00:52.666Z,37.88
2023-03-06T17:05:58.936Z,36.90
2023-03-06T17:11:01.802Z,37.67
2023-03-06T17:16:16.397Z,36.75
2023-03-06T17:21:20.796Z,40.33
2023-03-06T17:26:23.687Z,37.85
2023-03-06T17:31:28.467Z,37.65
2023-03-06T17:36:33.607Z,37.55
2023-03-06T17:41:36.497Z,38.70
2023-03-06T17:46:43.505Z,37.45
2023-03-06T17:51:47.798Z,37.97
2023-03-06T17:56:51.770Z,36.75
2023-03-06T18:01:57.225Z,36.33
2023-03-06T18:07:01.440Z,35.63
2023-03-06T18:12:04.635Z,36.70
2023-03-06T18:17:07.615Z,37.38
2023-03-06T18:22:11.844Z,36.97
2023-03-06T18:27:14.734Z,36.85
2023-03-06T18:32:17.744Z,36.97
2023-03-06T18:37:22.158Z,37.83
2023-03-06T18:42:26.208Z,39.35
2023-03-06T18:47:38.093Z,37.53
2023-03-06T18:52:42.432Z,36.47
2023-03-06T18:57:45.319Z,36.58
2023-03-06T19:02:48.265Z,37.63
2023-03-06T19:07:52.532Z,35.83
2023-03-06T19:12:55.417Z,37.13
2023-03-06T19:17:58.653Z,36.90
2023-03-06T19:23:02.885Z,36.88
2023-03-06T19:28:20.757Z,36.38
2023-03-06T19:33:23.716Z,36.25
2023-03-06T19:38:27.933Z,36.53
2023-03-06T19:43:32.958Z,37.63
2023-03-06T19:48:35.868Z,36.78
2023-03-06T19:53:41.455Z,36.92
2023-03-06T19:58:44.401Z,37.45
2023-03-06T20:03:47.607Z,35.47
2023-03-06T20:08:51.972Z,37.05
2023-03-06T20:13:55.222Z,36.97
2023-03-06T20:19:00.254Z,37.17
2023-03-06T20:24:05.133Z,37.42
2023-03-06T20:29:08.003Z,38.30
2023-03-06T20:34:11.526Z,38.70
2023-03-06T20:39:17.842Z,37.40
2023-03-06T20:44:20.825Z,36.63
2023-03-06T20:49:25.598Z,37.22
2023-03-06T20:54:31.365Z,37.35
2023-03-06T20:59:34.288Z,36.88
2023-03-06T21:04:40.831Z,36.65
2023-03-06T21:09:45.112Z,36.72
2023-03-06T21:14:48.005Z,37.20
2023-03-06T21:19:51.922Z,37.15
2023-03-06T21:24:56.102Z,37.03
2023-03-06T21:29:59.112Z,37.05
2023-03-06T21:35:02.011Z,36.88
2023-03-06T21:40:07.515Z,37.13
2023-03-06T21:45:12.023Z,36.63
2023-03-06T21:50:15.171Z,37.60
2023-03-06T21:55:19.920Z,36.60
2023-03-06T22:00:23.932Z,35.17
2023-03-06T22:05:26.852Z,37.08
2023-03-06T22:10:31.092Z,35.72
2023-03-06T22:15:33.968Z,35.60
2023-03-06T22:20:40.029Z,36.00
2023-03-06T22:25:44.273Z,36.38
2023-03-06T22:30:47.450Z,35.72
2023-03-06T22:35:50.451Z,34.90
2023-03-06T22:40:57.472Z,34.92
2023-03-06T22:46:03.101Z,36.72
2023-03-06T22:51:08.090Z,37.20
2023-03-06T22:56:14.649Z,35.67
2023-03-06T23:01:19.459Z,36.28
2023-03-06T23:06:24.693Z,36.30
2023-03-06T23:11:30.693Z,36.80
2023-03-06T23:16:52.692Z,37.08
2023-03-06T23:22:14.966Z,35.33
2023-03-06T23:27:37.924Z,36.80
2023-03-06T23:32:40.942Z,36.60
2023-03-06T23:37:43.853Z,36.13
2023-03-06T23:42:48.222Z,35.55
2023-03-06T23:47:51.079Z,35.55
2023-03-06T23:52:54.222Z,35.53
2023-03-06T23:57:58.460Z,35.63
